| time (UTC) | temp F | wind direction | speed knots | gust knots | rain 1hr in | rain 24hr in | rain mn in | humidity % | barometer mb |
| 20260905114608 | 93 | 160 | 3.5 | 11.3 | 0.00 | 0.00 | 0.00 | 34 | 1021.7 |
| 20260905113056 | 93 | 215 | 4.3 | 8.7 | 0.00 | 0.00 | 0.00 | 34 | 1021.7 |
| 20260905111634 | 93 | 158 | 4.3 | 10.4 | 0.00 | 0.00 | 0.00 | 34 | 1021.7 |
| 20260905110046 | 93 | 215 | 3.5 | 10.4 | 0.00 | 0.00 | 0.00 | 35 | 1021.7 |
| 20260905104555 | 93 | 140 | 2.6 | 7.8 | 0.00 | 0.00 | 0.00 | 35 | 1021.7 |
| 20260905103051 | 92 | 179 | 3.5 | 7.8 | 0.00 | 0.00 | 0.00 | 35 | 1021.9 |
| 20260905101549 | 92 | 224 | 2.6 | 8.7 | 0.00 | 0.00 | 0.00 | 35 | 1021.8 |
| 20260905100101 | 92 | 198 | 4.3 | 7.8 | 0.00 | 0.00 | 0.00 | 34 | 1021.9 |
| 20260905094551 | 91 | 269 | 2.6 | 7.0 | 0.00 | 0.00 | 0.00 | 35 | 1021.9 |
| 20260905093107 | 89 | 141 | 0.0 | 1.7 | 0.00 | 0.00 | 0.00 | 43 | 1021.9 |
| 20260905091553 | 86 | 298 | 1.7 | 3.5 | 0.00 | 0.00 | 0.00 | 47 | 1022.1 |
| 20260905090057 | 85 | 241 | 0.9 | 3.5 | 0.00 | 0.00 | 0.00 | 51 | 1022.0 |
| 20260905084554 | 83 | 0 | 1.7 | 7.0 | 0.00 | 0.00 | 0.00 | 54 | 1021.9 |
| 20260905083049 | 82 | 10 | 1.7 | 5.2 | 0.00 | 0.00 | 0.00 | 55 | 1022.0 |
| 20260905081548 | 80 | 99 | 2.6 | 7.8 | 0.00 | 0.00 | 0.00 | 57 | 1021.9 |
| 20260905080049 | 78 | 78 | 1.7 | 6.1 | 0.00 | 0.00 | 0.00 | 61 | 1021.9 |
| 20260905074548 | 76 | 61 | 1.7 | 6.1 | 0.00 | 0.00 | 0.00 | 65 | 1021.9 |
| 20260905073056 | 75 | 41 | 3.5 | 6.1 | 0.00 | 0.00 | 0.00 | 68 | 1021.9 |
| 20260905071552 | 73 | 96 | 0.0 | 1.7 | 0.00 | 0.00 | 0.00 | 72 | 1021.8 |
| 20260905070055 | 71 | 0 | 0.0 | 0.0 | 0.00 | 0.00 | 0.00 | 73 | 1021.9 |
| 20260905064629 | 70 | 0 | 0.0 | 0.0 | 0.00 | 0.00 | 0.00 | 76 | 1021.8 |
| 20260905063058 | 68 | 0 | 0.0 | 0.0 | 0.00 | 0.00 | 0.00 | 79 | 1021.7 |
| 20260905061553 | 67 | 0 | 0.0 | 0.0 | 0.00 | 0.00 | 0.00 | 80 | 1021.7 |
| 20260905060050 | 66 | 0 | 0.0 | 0.0 | 0.00 | 0.00 | 0.00 | 81 | 1021.6 |
| 20260905054551 | 66 | 0 | 0.0 | 0.0 | 0.00 | 0.00 | 0.00 | 82 | 1021.5 |
| 20260905053045 | 65 | 0 | 0.0 | 0.0 | 0.00 | 0.00 | 0.00 | 83 | 1021.4 |
| 20260905051553 | 66 | 0 | 0.0 | 0.0 | 0.00 | 0.00 | 0.00 | 83 | 1021.3 |
| 20260905050056 | 66 | 0 | 0.0 | 0.0 | 0.00 | 0.00 | 0.00 | 82 | 1021.2 |
| 20260905044550 | 66 | 0 | 0.0 | 0.0 | 0.00 | 0.00 | 0.00 | 82 | 1021.1 |
| 20260905043059 | 66 | 0 | 0.0 | 0.0 | 0.00 | 0.00 | 0.00 | 83 | 1021.0 |
| 20260905041558 | 66 | 0 | 0.0 | 0.0 | 0.00 | 0.00 | 0.00 | 82 | 1021.1 |
| 20260905040050 | 66 | 0 | 0.0 | 0.0 | 0.00 | 0.00 | 0.00 | 82 | 1021.0 |
| 20260905034604 | 67 | 0 | 0.0 | 0.0 | 0.00 | 0.00 | 0.00 | 80 | 1021.0 |
| 20260905033059 | 67 | 0 | 0.0 | 0.0 | 0.00 | 0.00 | 0.00 | 80 | 1021.0 |
| 20260905031601 | 67 | 0 | 0.0 | 0.0 | 0.00 | 0.00 | 0.00 | 80 | 1020.8 |
| 20260905030115 | 67 | 0 | 0.0 | 0.0 | 0.00 | 0.00 | 0.00 | 80 | 1020.8 |
| 20260905024552 | 67 | 0 | 0.0 | 0.0 | 0.00 | 0.00 | 0.00 | 80 | 1020.8 |
| 20260905023051 | 67 | 0 | 0.0 | 0.0 | 0.00 | 0.00 | 0.00 | 80 | 1020.8 |
| 20260905021549 | 67 | 0 | 0.0 | 0.0 | 0.00 | 0.00 | 0.00 | 81 | 1020.8 |
| 20260905020055 | 67 | 0 | 0.0 | 0.0 | 0.00 | 0.00 | 0.00 | 81 | 1020.8 |
| 20260905014557 | 68 | 0 | 0.0 | 0.0 | 0.00 | 0.00 | 0.00 | 81 | 1020.8 |
| 20260905013057 | 68 | 0 | 0.0 | 0.0 | 0.00 | 0.00 | 0.00 | 81 | 1020.9 |
| 20260905011555 | 68 | 0 | 0.0 | 0.0 | 0.00 | 0.00 | 0.00 | 80 | 1020.9 |
| 20260905010054 | 68 | 0 | 0.0 | 0.0 | 0.00 | 0.00 | 0.00 | 80 | 1020.9 |
| 20260905004607 | 69 | 0 | 0.0 | 0.0 | 0.00 | 0.00 | 0.00 | 79 | 1021.0 |
| 20260905003059 | 69 | 0 | 0.0 | 0.0 | 0.00 | 0.00 | 0.00 | 80 | 1021.0 |
| 20260905001603 | 69 | 0 | 0.0 | 0.0 | 0.00 | 0.00 | 0.00 | 79 | 1021.0 |
| 20260905000050 | 70 | 0 | 0.0 | 0.0 | 0.00 | 0.00 | 0.00 | 80 | 1020.9 |
| 20260904234607 | 70 | 0 | 0.0 | 0.0 | 0.00 | 0.00 | 0.00 | 79 | 1021.0 |
| 20260904233100 | 70 | 0 | 0.0 | 0.0 | 0.00 | 0.00 | 0.00 | 78 | 1021.1 |
| 20260904231556 | 71 | 0 | 0.0 | 0.0 | 0.00 | 0.00 | 0.00 | 79 | 1021.1 |
| 20260904230051 | 71 | 0 | 0.0 | 0.0 | 0.00 | 0.00 | 0.00 | 79 | 1021.0 |
| 20260904224550 | 72 | 0 | 0.0 | 0.0 | 0.00 | 0.00 | 0.00 | 77 | 1021.0 |
| 20260904223051 | 72 | 0 | 0.0 | 0.0 | 0.00 | 0.00 | 0.00 | 78 | 1021.2 |
| 20260904221555 | 72 | 0 | 0.0 | 0.0 | 0.00 | 0.00 | 0.00 | 77 | 1021.0 |
| 20260904220107 | 73 | 0 | 0.0 | 0.9 | 0.00 | 0.00 | 0.00 | 77 | 1021.0 |
| 20260904214549 | 73 | 0 | 0.0 | 0.0 | 0.00 | 0.00 | 0.00 | 76 | 1020.9 |
| 20260904213052 | 74 | 0 | 0.0 | 0.0 | 0.00 | 0.00 | 0.00 | 77 | 1020.9 |
| 20260904211555 | 75 | 0 | 0.0 | 0.0 | 0.00 | 0.00 | 0.00 | 78 | 1020.8 |
| 20260904210057 | 75 | 0 | 0.0 | 0.0 | 0.00 | 0.00 | 0.00 | 78 | 1020.7 |
| 20260904204553 | 76 | 0 | 0.0 | 0.0 | 0.00 | 0.00 | 0.00 | 77 | 1020.8 |
| 20260904203052 | 76 | 0 | 0.0 | 0.0 | 0.00 | 0.00 | 0.00 | 75 | 1020.8 |
| 20260904201558 | 77 | 0 | 0.0 | 0.0 | 0.00 | 0.00 | 0.00 | 76 | 1020.7 |
| 20260904200124 | 78 | 0 | 0.0 | 0.0 | 0.00 | 0.00 | 0.00 | 75 | 1020.6 |
| 20260904194633 | 79 | 0 | 0.0 | 1.7 | 0.00 | 0.00 | 0.00 | 75 | 1020.6 |
| 20260904193052 | 79 | 0 | 0.0 | 1.7 | 0.00 | 0.00 | 0.00 | 74 | 1020.6 |
| 20260904191552 | 80 | 0 | 0.0 | 0.9 | 0.00 | 0.00 | 0.00 | 75 | 1020.4 |
| 20260904190052 | 81 | 275 | 0.0 | 1.7 | 0.00 | 0.00 | 0.00 | 74 | 1020.1 |
| 20260904184604 | 82 | 0 | 0.0 | 2.6 | 0.00 | 0.00 | 0.00 | 73 | 1020.0 |
| 20260904183050 | 83 | 122 | 0.0 | 4.3 | 0.00 | 0.00 | 0.00 | 71 | 1019.8 |
| 20260904181553 | 83 | 144 | 1.7 | 6.1 | 0.00 | 0.00 | 0.00 | 70 | 1019.6 |
| 20260904180054 | 84 | 142 | 2.6 | 7.0 | 0.00 | 0.00 | 0.00 | 67 | 1019.4 |
| 20260904174550 | 86 | 151 | 1.7 | 5.2 | 0.00 | 0.00 | 0.00 | 64 | 1019.3 |
| 20260904173101 | 87 | 145 | 0.9 | 5.2 | 0.00 | 0.00 | 0.00 | 61 | 1019.1 |
| 20260904171551 | 89 | 154 | 0.9 | 5.2 | 0.00 | 0.00 | 0.00 | 58 | 1018.9 |
| 20260904170054 | 90 | 165 | 3.5 | 7.8 | 0.00 | 0.00 | 0.00 | 56 | 1018.7 |
| 20260904164552 | 91 | 172 | 1.7 | 7.8 | 0.00 | 0.00 | 0.00 | 53 | 1018.8 |
| 20260904163046 | 92 | 223 | 2.6 | 7.0 | 0.00 | 0.00 | 0.00 | 50 | 1018.8 |
| 20260904161554 | 93 | 128 | 3.5 | 10.4 | 0.00 | 0.00 | 0.00 | 47 | 1018.7 |
| 20260904160054 | 93 | 220 | 1.7 | 7.8 | 0.00 | 0.00 | 0.00 | 48 | 1018.7 |
| 20260904154550 | 93 | 226 | 3.5 | 7.0 | 0.00 | 0.00 | 0.00 | 47 | 1018.8 |
| 20260904153057 | 93 | 222 | 2.6 | 7.8 | 0.00 | 0.00 | 0.00 | 50 | 1018.6 |
| 20260904151601 | 93 | 190 | 3.5 | 7.8 | 0.00 | 0.00 | 0.00 | 51 | 1018.6 |
| 20260904150050 | 92 | 224 | 4.3 | 13.0 | 0.00 | 0.00 | 0.00 | 52 | 1018.6 |
| 20260904144600 | 92 | 148 | 3.5 | 10.4 | 0.00 | 0.00 | 0.00 | 52 | 1018.7 |
| 20260904143056 | 93 | 226 | 4.3 | 11.3 | 0.00 | 0.00 | 0.00 | 52 | 1018.7 |
| 20260904141617 | 93 | 122 | 4.3 | 10.4 | 0.00 | 0.00 | 0.00 | 52 | 1018.8 |
| 20260904140109 | 94 | 190 | 5.2 | 9.6 | 0.00 | 0.00 | 0.00 | 50 | 1018.8 |
| 20260904134620 | 95 | 212 | 4.3 | 12.2 | 0.00 | 0.00 | 0.00 | 47 | 1018.6 |
| 20260904133109 | 95 | 144 | 5.2 | 9.6 | 0.00 | 0.00 | 0.00 | 46 | 1018.7 |
| 20260904131607 | 94 | 222 | 2.6 | 10.4 | 0.00 | 0.00 | 0.00 | 45 | 1018.6 |
| 20260904130050 | 94 | 146 | 3.5 | 7.8 | 0.00 | 0.00 | 0.00 | 45 | 1018.7 |
| 20260904124559 | 94 | 187 | 3.5 | 13.0 | 0.00 | 0.00 | 0.00 | 44 | 1018.8 |
| 20260904123053 | 93 | 131 | 3.5 | 7.8 | 0.00 | 0.00 | 0.00 | 43 | 1018.9 |
| 20260904121549 | 93 | 205 | 3.5 | 7.8 | 0.00 | 0.00 | 0.00 | 42 | 1019.1 |
| 20260904120059 | 92 | 205 | 3.5 | 4.3 | 0.00 | 0.00 | 0.00 | 44 | 1019.3 |